Time;durP1;ratioP1;P1;durP2;ratioP2;P2;SDS_P1;SDS_P2;PMS_P1;PMS_P2;Temp;Humidity;BMP_temperature;BMP_pressure;BME280_temperature;BME280_humidity;BME280_pressure;Samples;Min_cycle;Max_cycle;Signal;HPM_P1;HPM_P2
2023/07/10 00:01:39;;;;;;;8.35;4.03;;;;;;;;;;5032621;28;20024;-79
2023/07/10 00:04:17;;;;;;;8.75;4.07;;;;;;;;;;5035585;28;20681;-79
2023/07/10 00:06:42;;;;;;;7.72;3.95;;;;;;;;;;5032553;28;20075;-79
2023/07/10 00:09:08;;;;;;;6.97;3.60;;;;;;;;;;5034591;28;20049;-79
2023/07/10 00:11:34;;;;;;;6.65;3.70;;;;;;;;;;5056272;28;20081;-79
2023/07/10 00:13:59;;;;;;;7.53;3.92;;;;;;;;;;5037022;28;20393;-79
2023/07/10 00:16:26;;;;;;;7.88;4.13;;;;;;;;;;5032641;28;20025;-79
2023/07/10 00:18:51;;;;;;;7.40;2.75;;;;;;;;;;5035164;28;20171;-79
2023/07/10 00:21:18;;;;;;;7.03;3.90;;;;;;;;;;5031295;28;20145;-79
2023/07/10 00:23:44;;;;;;;5.50;3.13;;;;;;;;;;5030026;28;20036;-79
2023/07/10 00:26:21;;;;;;;7.72;3.30;;;;;;;;;;5054793;28;20025;-79
2023/07/10 00:28:49;;;;;;;7.03;3.70;;;;;;;;;;5032437;28;20056;-80
2023/07/10 00:31:14;;;;;;;6.82;3.47;;;;;;;;;;5049792;28;20024;-79
2023/07/10 00:33:40;;;;;;;7.90;3.67;;;;;;;;;;5049107;28;20527;-79
2023/07/10 00:36:29;;;;;;;7.10;2.92;;;;;;;;;;5048258;28;20033;-79
2023/07/10 00:38:55;;;;;;;6.32;3.00;;;;;;;;;;5050639;28;20025;-79
2023/07/10 00:41:24;;;;;;;6.65;3.45;;;;;;;;;;5051351;28;20025;-79
2023/07/10 00:43:55;;;;;;;6.25;2.85;;;;;;;;;;5047886;28;20035;-79
2023/07/10 00:46:38;;;;;;;6.88;3.20;;;;;;;;;;5031767;28;20017;-79
2023/07/10 00:49:16;;;;;;;6.75;3.20;;;;;;;;;;5050117;28;20698;-79
2023/07/10 00:52:11;;;;;;;5.63;3.10;;;;;;;;;;5030537;28;20028;-79
2023/07/10 00:54:41;;;;;;;6.28;2.72;;;;;;;;;;5026086;28;20044;-79
2023/07/10 00:57:14;;;;;;;4.70;2.50;;;;;;;;;;5055957;28;20029;-79
2023/07/10 00:59:41;;;;;;;6.70;3.15;;;;;;;;;;5058353;28;20020;-79
2023/07/10 01:02:06;;;;;;;6.97;3.17;;;;;;;;;;5038243;28;20040;-79
2023/07/10 01:04:32;;;;;;;5.70;2.70;;;;;;;;;;5035595;28;20408;-79
2023/07/10 01:06:57;;;;;;;8.05;2.92;;;;;;;;;;5062032;28;20481;-79
2023/07/10 01:09:23;;;;;;;5.80;2.35;;;;;;;;;;5038044;28;20162;-79
2023/07/10 01:11:49;;;;;;;4.93;2.50;;;;;;;;;;5054115;28;20033;-79
2023/07/10 01:14:15;;;;;;;6.88;2.67;;;;;;;;;;5036695;28;20401;-79
2023/07/10 01:16:40;;;;;;;6.13;2.63;;;;;;;;;;5036746;28;20031;-79
2023/07/10 01:19:21;;;;;;;6.78;2.90;;;;;;;;;;5051779;28;20028;-79
2023/07/10 01:21:46;;;;;;;6.32;2.95;;;;;;;;;;5034027;28;20020;-79
2023/07/10 01:24:12;;;;;;;5.93;2.78;;;;;;;;;;5034455;28;20025;-78
2023/07/10 01:26:39;;;;;;;5.75;2.55;;;;;;;;;;5032606;28;20477;-79
2023/07/10 01:29:26;;;;;;;7.22;2.38;;;;;;;;;;5050934;28;20071;-79
2023/07/10 01:31:53;;;;;;;5.55;2.45;;;;;;;;;;5049641;28;20428;-79
2023/07/10 01:34:23;;;;;;;5.07;2.60;;;;;;;;;;5036980;28;20079;-79
2023/07/10 01:36:49;;;;;;;5.25;2.15;;;;;;;;;;5050236;28;20032;-79
2023/07/10 01:39:36;;;;;;;6.35;2.13;;;;;;;;;;5030950;28;20064;-79
2023/07/10 01:42:01;;;;;;;6.32;2.40;;;;;;;;;;5047662;28;20486;-79
2023/07/10 01:44:32;;;;;;;5.00;2.22;;;;;;;;;;5045181;28;20079;-79
2023/07/10 01:47:00;;;;;;;4.18;2.20;;;;;;;;;;5030594;28;20028;-79
2023/07/10 01:49:32;;;;;;;4.75;2.28;;;;;;;;;;5047923;28;20035;-79
2023/07/10 01:51:59;;;;;;;4.78;2.65;;;;;;;;;;5034342;28;20120;-79
2023/07/10 01:54:25;;;;;;;4.78;2.38;;;;;;;;;;5028785;28;20091;-79
2023/07/10 01:56:52;;;;;;;4.90;2.78;;;;;;;;;;5053958;28;20033;-79
2023/07/10 01:59:18;;;;;;;4.60;2.50;;;;;;;;;;5050832;28;20397;-79
2023/07/10 02:01:43;;;;;;;3.80;1.92;;;;;;;;;;5038277;28;20016;-79
2023/07/10 02:04:09;;;;;;;6.97;2.30;;;;;;;;;;5048645;28;20026;-79
2023/07/10 02:06:36;;;;;;;3.13;1.80;;;;;;;;;;5029798;28;20478;-79
2023/07/10 02:09:03;;;;;;;4.18;1.70;;;;;;;;;;5034724;28;20394;-79
2023/07/10 02:11:29;;;;;;;4.00;1.98;;;;;;;;;;5030712;28;20385;-79
2023/07/10 02:13:54;;;;;;;3.58;1.92;;;;;;;;;;5034225;28;20025;-79
2023/07/10 02:16:19;;;;;;;3.72;1.83;;;;;;;;;;5035805;28;20123;-79
2023/07/10 02:18:45;;;;;;;3.60;1.70;;;;;;;;;;5054049;28;20021;-79
2023/07/10 02:21:10;;;;;;;4.60;1.95;;;;;;;;;;5051605;28;20025;-79
2023/07/10 02:23:38;;;;;;;5.00;2.20;;;;;;;;;;5034901;28;20047;-79
2023/07/10 02:26:04;;;;;;;3.90;1.95;;;;;;;;;;5049948;28;20033;-79
2023/07/10 02:28:29;;;;;;;3.97;2.20;;;;;;;;;;5035430;28;20500;-79
2023/07/10 02:30:55;;;;;;;4.70;2.20;;;;;;;;;;5038687;28;20059;-79
2023/07/10 02:33:21;;;;;;;4.28;2.38;;;;;;;;;;5036050;28;20120;-79
2023/07/10 02:35:46;;;;;;;3.75;2.25;;;;;;;;;;5032594;28;20760;-79
2023/07/10 02:38:12;;;;;;;4.85;2.50;;;;;;;;;;5014529;28;20028;-79
2023/07/10 02:40:38;;;;;;;6.63;2.30;;;;;;;;;;5044580;28;20419;-79
2023/07/10 02:43:03;;;;;;;5.80;2.53;;;;;;;;;;5031363;28;20029;-79
2023/07/10 02:45:29;;;;;;;5.78;2.38;;;;;;;;;;5049526;28;20060;-79
2023/07/10 02:47:54;;;;;;;4.80;2.50;;;;;;;;;;5040622;28;20139;-79
2023/07/10 02:50:19;;;;;;;4.15;1.90;;;;;;;;;;5056002;28;20032;-79
2023/07/10 02:52:45;;;;;;;5.63;2.45;;;;;;;;;;5044618;28;20024;-79
2023/07/10 02:55:10;;;;;;;4.30;2.10;;;;;;;;;;5050635;28;20024;-79
2023/07/10 02:57:36;;;;;;;6.15;2.10;;;;;;;;;;5027648;28;20078;-79
2023/07/10 03:00:02;;;;;;;3.78;1.77;;;;;;;;;;5045398;28;20123;-79
2023/07/10 03:02:28;;;;;;;4.97;2.03;;;;;;;;;;5050597;28;20029;-78
2023/07/10 03:04:53;;;;;;;4.30;2.05;;;;;;;;;;5049212;28;20041;-78
2023/07/10 03:07:18;;;;;;;3.65;2.30;;;;;;;;;;5049613;28;20025;-79
2023/07/10 03:09:44;;;;;;;3.80;2.00;;;;;;;;;;5055390;28;20048;-79
2023/07/10 03:12:10;;;;;;;3.20;1.80;;;;;;;;;;5032056;28;20551;-79
2023/07/10 03:14:35;;;;;;;4.57;1.80;;;;;;;;;;5045700;28;20456;-79
2023/07/10 03:17:01;;;;;;;4.13;2.00;;;;;;;;;;5027949;28;20029;-79
2023/07/10 03:19:31;;;;;;;4.50;1.80;;;;;;;;;;5024679;28;20111;-79
2023/07/10 03:21:56;;;;;;;4.43;1.83;;;;;;;;;;5040546;28;20730;-79
2023/07/10 03:24:22;;;;;;;4.80;1.90;;;;;;;;;;5029823;28;20025;-79
2023/07/10 03:26:48;;;;;;;5.07;1.65;;;;;;;;;;5031219;28;20032;-79
2023/07/10 03:29:14;;;;;;;4.07;1.67;;;;;;;;;;5047716;28;20064;-79
2023/07/10 03:31:40;;;;;;;3.80;2.00;;;;;;;;;;5046826;28;20032;-79
2023/07/10 03:34:06;;;;;;;4.20;2.00;;;;;;;;;;5043868;28;20035;-78
2023/07/10 03:36:32;;;;;;;3.47;1.80;;;;;;;;;;5042197;28;20115;-79
2023/07/10 03:38:58;;;;;;;4.82;2.13;;;;;;;;;;5042983;28;20021;-79
2023/07/10 03:41:24;;;;;;;4.13;2.20;;;;;;;;;;5052311;28;20040;-79
2023/07/10 03:43:49;;;;;;;4.47;2.50;;;;;;;;;;5028542;28;20036;-78
2023/07/10 03:46:18;;;;;;;4.30;2.13;;;;;;;;;;5027511;28;20036;-79
2023/07/10 03:48:43;;;;;;;3.50;1.63;;;;;;;;;;5027007;28;20024;-79
2023/07/10 03:51:09;;;;;;;4.07;1.92;;;;;;;;;;5046233;28;20115;-79
2023/07/10 03:53:35;;;;;;;4.88;2.08;;;;;;;;;;5031323;28;20033;-79
2023/07/10 03:56:00;;;;;;;5.05;1.95;;;;;;;;;;5033164;28;20405;-79
2023/07/10 03:58:28;;;;;;;4.07;2.05;;;;;;;;;;5048913;28;20143;-79
2023/07/10 04:00:58;;;;;;;5.28;2.00;;;;;;;;;;5039459;28;20028;-79
2023/07/10 04:03:30;;;;;;;4.53;1.90;;;;;;;;;;5031508;28;20389;-79
2023/07/10 04:05:58;;;;;;;4.28;1.90;;;;;;;;;;5046676;28;20025;-79
2023/07/10 04:08:32;;;;;;;3.25;1.92;;;;;;;;;;5032305;28;20033;-79
2023/07/10 04:11:00;;;;;;;4.28;1.67;;;;;;;;;;5027806;28;20053;-79
2023/07/10 04:13:26;;;;;;;6.53;1.80;;;;;;;;;;5045827;28;20382;-79
2023/07/10 04:16:00;;;;;;;4.85;1.90;;;;;;;;;;5025328;28;20541;-79
2023/07/10 04:18:36;;;;;;;4.45;2.17;;;;;;;;;;5025720;28;20033;-79
2023/07/10 04:21:04;;;;;;;4.90;1.88;;;;;;;;;;5027284;28;20128;-79
2023/07/10 04:23:30;;;;;;;4.18;1.80;;;;;;;;;;5044330;28;20032;-79
2023/07/10 04:25:55;;;;;;;4.88;2.03;;;;;;;;;;5030696;28;21463;-79
2023/07/10 04:28:21;;;;;;;7.70;2.15;;;;;;;;;;5045979;28;20060;-79
2023/07/10 04:30:47;;;;;;;5.15;2.10;;;;;;;;;;5030847;28;20121;-79
2023/07/10 04:33:16;;;;;;;3.50;2.20;;;;;;;;;;5044384;28;20024;-78
2023/07/10 04:35:43;;;;;;;5.43;2.25;;;;;;;;;;5045089;28;20059;-78
2023/07/10 04:38:09;;;;;;;4.10;2.22;;;;;;;;;;5027336;28;20078;-79
2023/07/10 04:40:34;;;;;;;4.07;2.25;;;;;;;;;;5041813;28;20029;-79
2023/07/10 04:43:02;;;;;;;3.60;2.03;;;;;;;;;;5048947;28;20041;-78
2023/07/10 04:45:27;;;;;;;4.30;2.25;;;;;;;;;;5043963;28;20078;-78
2023/07/10 04:47:52;;;;;;;5.32;2.42;;;;;;;;;;5053980;28;20104;-78
2023/07/10 04:50:18;;;;;;;6.32;2.50;;;;;;;;;;5028651;28;20473;-78
2023/07/10 04:52:43;;;;;;;6.38;2.83;;;;;;;;;;5032677;28;20385;-79
2023/07/10 04:55:09;;;;;;;4.72;2.75;;;;;;;;;;5041086;28;20032;-78
2023/07/10 04:57:34;;;;;;;4.90;2.90;;;;;;;;;;5046621;28;20424;-78
2023/07/10 04:59:59;;;;;;;6.00;2.70;;;;;;;;;;5032059;28;20024;-79
2023/07/10 05:02:25;;;;;;;4.10;2.50;;;;;;;;;;5025703;28;20036;-78
2023/07/10 05:04:51;;;;;;;4.43;2.85;;;;;;;;;;5034779;28;20477;-79
2023/07/10 05:07:16;;;;;;;4.10;2.45;;;;;;;;;;5050652;28;20033;-78
2023/07/10 05:09:41;;;;;;;7.05;2.50;;;;;;;;;;5029586;28;20393;-78
2023/07/10 05:12:07;;;;;;;5.10;2.67;;;;;;;;;;5047327;28;20033;-79
2023/07/10 05:14:32;;;;;;;7.18;3.90;;;;;;;;;;5043326;28;20354;-78
2023/07/10 05:16:58;;;;;;;7.30;3.75;;;;;;;;;;5039600;28;20108;-79
2023/07/10 05:19:23;;;;;;;9.82;4.32;;;;;;;;;;5050113;28;20381;-78
2023/07/10 05:21:49;;;;;;;7.10;4.28;;;;;;;;;;5044661;28;20066;-79
2023/07/10 05:24:14;;;;;;;6.22;4.40;;;;;;;;;;5056564;28;20094;-78
2023/07/10 05:26:39;;;;;;;6.90;4.55;;;;;;;;;;5049330;28;20024;-79
2023/07/10 05:29:06;;;;;;;8.75;4.88;;;;;;;;;;5063955;28;20079;-79
2023/07/10 05:31:31;;;;;;;7.00;4.30;;;;;;;;;;5034316;28;20020;-78
2023/07/10 05:33:56;;;;;;;7.47;4.68;;;;;;;;;;5054857;28;20130;-79
2023/07/10 05:36:22;;;;;;;6.30;4.32;;;;;;;;;;5032721;28;20062;-79
2023/07/10 05:38:48;;;;;;;7.65;4.45;;;;;;;;;;5046279;28;20033;-78
2023/07/10 05:41:17;;;;;;;6.05;4.05;;;;;;;;;;5051584;28;20032;-79
2023/07/10 05:43:43;;;;;;;7.15;4.18;;;;;;;;;;5050581;28;20381;-79
2023/07/10 05:46:11;;;;;;;5.38;3.90;;;;;;;;;;5037742;28;20432;-79
2023/07/10 05:48:37;;;;;;;8.18;3.97;;;;;;;;;;5034381;28;20377;-79
2023/07/10 05:51:03;;;;;;;6.03;3.70;;;;;;;;;;5033305;28;20025;-79
2023/07/10 05:53:29;;;;;;;7.50;3.80;;;;;;;;;;5029743;28;20036;-79
2023/07/10 05:55:56;;;;;;;7.57;4.07;;;;;;;;;;5049325;28;20029;-79
2023/07/10 05:58:24;;;;;;;6.63;3.45;;;;;;;;;;5052519;28;20470;-79
2023/07/10 06:00:53;;;;;;;5.90;2.88;;;;;;;;;;5050109;28;20029;-79
2023/07/10 06:03:18;;;;;;;5.85;2.45;;;;;;;;;;5054853;28;20103;-79
2023/07/10 06:05:56;;;;;;;4.70;2.63;;;;;;;;;;5033705;28;20128;-78
2023/07/10 06:08:23;;;;;;;5.43;2.58;;;;;;;;;;5050144;28;20108;-78
2023/07/10 06:10:48;;;;;;;5.18;2.70;;;;;;;;;;5044129;28;20028;-79
2023/07/10 06:13:14;;;;;;;16.40;2.90;;;;;;;;;;5055693;28;20032;-78
2023/07/10 06:15:44;;;;;;;6.45;2.60;;;;;;;;;;5038897;28;20021;-79
2023/07/10 06:18:10;;;;;;;5.45;2.10;;;;;;;;;;5030938;28;20401;-79
2023/07/10 06:20:35;;;;;;;6.72;2.47;;;;;;;;;;5033880;28;20029;-79
2023/07/10 06:23:01;;;;;;;5.30;1.90;;;;;;;;;;5033946;28;20033;-78
2023/07/10 06:25:26;;;;;;;5.90;2.25;;;;;;;;;;5050474;28;20104;-79
2023/07/10 06:27:51;;;;;;;3.75;1.98;;;;;;;;;;5036204;28;20024;-79
2023/07/10 06:30:17;;;;;;;5.18;2.10;;;;;;;;;;5033010;28;20076;-79
2023/07/10 06:32:43;;;;;;;5.25;2.03;;;;;;;;;;5037708;28;20032;-78
2023/07/10 06:35:12;;;;;;;6.18;2.30;;;;;;;;;;5049370;28;20374;-79
2023/07/10 06:37:42;;;;;;;4.90;2.05;;;;;;;;;;5027878;28;20120;-78
2023/07/10 06:40:13;;;;;;;6.72;2.20;;;;;;;;;;5038209;28;20029;-78
2023/07/10 06:42:40;;;;;;;5.10;2.00;;;;;;;;;;5028517;28;20410;-79
2023/07/10 06:45:06;;;;;;;5.47;1.80;;;;;;;;;;5034087;28;20029;-78
2023/07/10 06:47:32;;;;;;;10.00;1.90;;;;;;;;;;5029983;28;20488;-79
2023/07/10 06:49:59;;;;;;;6.45;1.90;;;;;;;;;;5048685;28;20122;-79
2023/07/10 06:52:25;;;;;;;6.03;1.80;;;;;;;;;;5034540;28;20511;-78
2023/07/10 06:54:50;;;;;;;5.78;1.88;;;;;;;;;;5044869;28;20017;-78
2023/07/10 06:57:15;;;;;;;6.47;1.70;;;;;;;;;;5028523;28;20048;-78
2023/07/10 06:59:42;;;;;;;5.90;2.00;;;;;;;;;;5034435;28;20079;-79
2023/07/10 07:02:11;;;;;;;6.32;2.33;;;;;;;;;;5027904;28;20061;-78
2023/07/10 07:04:36;;;;;;;5.18;2.20;;;;;;;;;;5027639;28;20474;-77
2023/07/10 07:07:02;;;;;;;6.05;2.10;;;;;;;;;;5039211;28;20028;-78
2023/07/10 07:09:27;;;;;;;5.40;2.15;;;;;;;;;;5035175;28;20033;-78
2023/07/10 07:11:52;;;;;;;5.80;2.20;;;;;;;;;;5034107;28;20064;-78
2023/07/10 07:14:18;;;;;;;7.78;2.45;;;;;;;;;;5031981;28;20432;-78
2023/07/10 07:16:43;;;;;;;5.88;2.42;;;;;;;;;;5049342;28;20063;-78
2023/07/10 07:19:09;;;;;;;4.95;2.60;;;;;;;;;;5040770;28;20029;-79
2023/07/10 07:21:34;;;;;;;8.68;2.60;;;;;;;;;;5050979;28;20029;-78
2023/07/10 07:23:59;;;;;;;5.72;2.55;;;;;;;;;;5035852;28;20561;-78
2023/07/10 07:26:25;;;;;;;6.90;2.92;;;;;;;;;;5030936;28;20079;-78
2023/07/10 07:28:50;;;;;;;6.40;2.50;;;;;;;;;;5049792;28;20059;-78
2023/07/10 07:31:15;;;;;;;6.75;2.72;;;;;;;;;;5027720;28;20060;-78
2023/07/10 07:33:41;;;;;;;7.38;2.42;;;;;;;;;;5036718;28;20021;-78
2023/07/10 07:36:06;;;;;;;7.10;3.22;;;;;;;;;;5031302;28;20040;-78
2023/07/10 07:38:32;;;;;;;7.53;2.75;;;;;;;;;;5028162;28;20029;-78
2023/07/10 07:40:59;;;;;;;6.88;3.03;;;;;;;;;;5054032;28;20025;-79
2023/07/10 07:43:24;;;;;;;9.40;3.35;;;;;;;;;;5050398;28;20040;-78
2023/07/10 07:45:51;;;;;;;8.60;2.85;;;;;;;;;;5053480;28;20021;-78
2023/07/10 07:48:17;;;;;;;8.68;2.85;;;;;;;;;;5053816;28;20670;-78
2023/07/10 07:50:42;;;;;;;9.57;3.40;;;;;;;;;;5049314;28;20045;-78
2023/07/10 07:53:08;;;;;;;6.20;2.55;;;;;;;;;;5048382;28;20029;-78
2023/07/10 07:55:33;;;;;;;8.10;3.13;;;;;;;;;;5026688;28;20067;-78
2023/07/10 07:57:58;;;;;;;5.47;2.95;;;;;;;;;;5031887;28;20089;-78
2023/07/10 08:00:24;;;;;;;6.63;2.30;;;;;;;;;;5031358;28;20029;-79
2023/07/10 08:02:49;;;;;;;7.03;1.85;;;;;;;;;;5049306;28;20071;-77
2023/07/10 08:05:14;;;;;;;9.43;2.50;;;;;;;;;;5030845;28;20032;-78
2023/07/10 08:07:40;;;;;;;4.38;2.00;;;;;;;;;;5045916;28;20103;-78
2023/07/10 08:10:06;;;;;;;7.03;2.40;;;;;;;;;;5033668;28;20028;-78
2023/07/10 08:12:31;;;;;;;5.75;1.70;;;;;;;;;;5030820;28;20035;-78
2023/07/10 08:14:57;;;;;;;7.20;2.30;;;;;;;;;;5033808;28;20025;-78
2023/07/10 08:17:22;;;;;;;5.88;2.03;;;;;;;;;;5049990;28;20044;-78
2023/07/10 08:19:48;;;;;;;7.43;2.30;;;;;;;;;;5051152;28;20596;-79
2023/07/10 08:22:13;;;;;;;6.95;2.45;;;;;;;;;;5057190;28;20032;-78
2023/07/10 08:24:39;;;;;;;8.55;2.85;;;;;;;;;;5026827;28;20149;-79
2023/07/10 08:27:04;;;;;;;4.68;1.73;;;;;;;;;;5037479;28;20032;-78
2023/07/10 08:29:34;;;;;;;7.53;2.30;;;;;;;;;;5046336;28;20032;-80
2023/07/10 08:32:00;;;;;;;4.60;1.98;;;;;;;;;;5032486;28;20029;-78
2023/07/10 08:34:28;;;;;;;6.80;2.20;;;;;;;;;;5033629;28;20021;-78
2023/07/10 08:36:54;;;;;;;8.35;2.28;;;;;;;;;;5031716;28;20543;-79
2023/07/10 08:39:23;;;;;;;7.15;2.05;;;;;;;;;;5051499;28;20025;-79
2023/07/10 08:41:55;;;;;;;4.45;1.98;;;;;;;;;;5015863;28;20400;-78
2023/07/10 08:44:34;;;;;;;6.93;2.10;;;;;;;;;;5039955;28;20119;-79
2023/07/10 08:47:10;;;;;;;8.43;2.30;;;;;;;;;;5031111;28;20032;-79
2023/07/10 08:49:54;;;;;;;6.15;1.98;;;;;;;;;;5029589;28;20032;-79
2023/07/10 08:52:53;;;;;;;6.78;2.00;;;;;;;;;;5041627;28;20028;-78
2023/07/10 08:55:48;;;;;;;5.97;2.28;;;;;;;;;;5052651;28;20540;-78
2023/07/10 08:58:23;;;;;;;5.47;1.92;;;;;;;;;;5023340;28;20037;-79
2023/07/10 09:00:53;;;;;;;7.45;1.75;;;;;;;;;;5059706;28;20025;-79
2023/07/10 09:03:31;;;;;;;7.32;2.08;;;;;;;;;;5033238;28;20558;-79
2023/07/10 09:05:57;;;;;;;7.60;1.83;;;;;;;;;;5030413;28;20029;-79
2023/07/10 09:08:25;;;;;;;6.47;2.17;;;;;;;;;;5040605;28;20063;-79
2023/07/10 09:10:54;;;;;;;6.57;1.70;;;;;;;;;;5053526;28;20029;-79
2023/07/10 09:13:43;;;;;;;6.82;1.95;;;;;;;;;;5046891;28;20036;-78
2023/07/10 09:16:20;;;;;;;6.22;1.50;;;;;;;;;;5050292;28;20021;-78
2023/07/10 09:18:53;;;;;;;7.82;1.55;;;;;;;;;;5055141;28;20390;-79
2023/07/10 09:21:35;;;;;;;5.50;1.77;;;;;;;;;;5053684;28;20063;-78
2023/07/10 09:24:03;;;;;;;8.60;1.73;;;;;;;;;;5033338;28;20474;-79
2023/07/10 09:26:39;;;;;;;5.25;1.48;;;;;;;;;;5033649;28;20029;-78
2023/07/10 09:29:10;;;;;;;6.55;1.80;;;;;;;;;;5050493;28;20031;-80
2023/07/10 09:32:03;;;;;;;5.70;1.85;;;;;;;;;;5034968;28;20677;-80
2023/07/10 09:34:31;;;;;;;4.47;1.60;;;;;;;;;;5034182;28;20032;-80
2023/07/10 09:36:57;;;;;;;7.53;2.08;;;;;;;;;;5051968;28;20140;-80
2023/07/10 09:39:28;;;;;;;8.93;2.55;;;;;;;;;;5049896;28;20025;-80
2023/07/10 09:42:01;;;;;;;5.25;1.80;;;;;;;;;;5037210;28;20029;-80
2023/07/10 09:44:36;;;;;;;7.22;2.03;;;;;;;;;;5038648;28;20021;-80
2023/07/10 09:47:09;;;;;;;5.68;1.95;;;;;;;;;;5056117;28;20081;-80
2023/07/10 09:49:41;;;;;;;7.38;1.58;;;;;;;;;;5036666;28;20366;-80
2023/07/10 09:52:16;;;;;;;4.57;1.50;;;;;;;;;;5041214;28;20025;-80
2023/07/10 09:54:42;;;;;;;4.57;1.70;;;;;;;;;;5056119;28;20067;-80
2023/07/10 09:57:16;;;;;;;6.40;1.70;;;;;;;;;;5052350;28;20056;-80
2023/07/10 09:59:53;;;;;;;7.15;1.83;;;;;;;;;;5041195;28;20401;-80
2023/07/10 10:02:33;;;;;;;6.55;1.83;;;;;;;;;;5038803;28;20087;-80
2023/07/10 10:05:19;;;;;;;6.45;1.45;;;;;;;;;;5031602;28;20064;-81
2023/07/10 10:07:48;;;;;;;6.43;1.50;;;;;;;;;;5038480;28;20032;-80
2023/07/10 10:10:25;;;;;;;6.65;2.05;;;;;;;;;;5052739;28;20488;-80
2023/07/10 10:13:03;;;;;;;4.47;1.50;;;;;;;;;;5050095;28;20029;-80
2023/07/10 10:15:42;;;;;;;5.05;1.70;;;;;;;;;;5018772;28;20055;-81
2023/07/10 10:18:31;;;;;;;6.00;1.45;;;;;;;;;;5053820;28;20480;-80
2023/07/10 10:20:58;;;;;;;4.50;1.30;;;;;;;;;;5050423;28;20029;-80
2023/07/10 10:23:36;;;;;;;3.40;1.20;;;;;;;;;;5035807;28;20032;-80
2023/07/10 10:26:23;;;;;;;5.85;1.20;;;;;;;;;;5052097;28;20496;-81
2023/07/10 10:29:19;;;;;;;5.25;1.40;;;;;;;;;;5046029;28;20100;-80
2023/07/10 10:31:54;;;;;;;4.60;1.30;;;;;;;;;;5048395;28;20029;-80
2023/07/10 10:34:35;;;;;;;5.38;1.40;;;;;;;;;;5033343;28;20036;-81
2023/07/10 10:37:03;;;;;;;5.13;1.30;;;;;;;;;;5047605;28;20036;-81
2023/07/10 10:39:37;;;;;;;5.05;1.23;;;;;;;;;;5049334;28;20032;-80
2023/07/10 10:42:23;;;;;;;5.18;1.33;;;;;;;;;;5029352;28;20064;-80
2023/07/10 10:45:08;;;;;;;5.03;1.13;;;;;;;;;;5036063;28;20075;-80
2023/07/10 10:48:09;;;;;;;3.05;1.20;;;;;;;;;;5048312;28;20036;-80
2023/07/10 10:51:04;;;;;;;4.82;1.30;;;;;;;;;;5030060;28;20120;-80
2023/07/10 10:53:58;;;;;;;4.10;1.10;;;;;;;;;;5045185;28;20075;-81
2023/07/10 10:56:38;;;;;;;4.53;1.13;;;;;;;;;;5021935;28;20192;-80
2023/07/10 10:59:14;;;;;;;4.05;1.00;;;;;;;;;;5049312;28;20306;-80
2023/07/10 11:01:45;;;;;;;5.40;1.05;;;;;;;;;;5060082;28;20077;-80
2023/07/10 11:04:34;;;;;;;3.80;1.00;;;;;;;;;;5030386;28;20017;-80
2023/07/10 11:07:10;;;;;;;5.00;1.23;;;;;;;;;;5049615;28;20497;-80
2023/07/10 11:10:00;;;;;;;4.13;0.98;;;;;;;;;;5054240;28;20025;-80
2023/07/10 11:12:31;;;;;;;6.53;2.40;;;;;;;;;;5057415;28;20028;-80
2023/07/10 11:15:01;;;;;;;6.30;1.92;;;;;;;;;;5034217;28;20032;-80
2023/07/10 11:17:27;;;;;;;5.15;1.20;;;;;;;;;;5032668;28;20037;-80
2023/07/10 11:19:53;;;;;;;6.80;1.23;;;;;;;;;;5031980;28;20028;-80
2023/07/10 11:22:26;;;;;;;4.28;1.23;;;;;;;;;;5045831;28;20036;-80
2023/07/10 11:24:52;;;;;;;4.80;1.20;;;;;;;;;;5050643;28;20033;-80
2023/07/10 11:27:30;;;;;;;6.25;1.30;;;;;;;;;;5054022;28;20029;-80
2023/07/10 11:30:07;;;;;;;4.97;1.35;;;;;;;;;;5046686;28;20028;-80
2023/07/10 11:32:53;;;;;;;8.63;1.42;;;;;;;;;;5028393;28;20442;-80
2023/07/10 11:35:20;;;;;;;4.63;1.42;;;;;;;;;;5032124;28;20043;-80
2023/07/10 11:37:49;;;;;;;7.65;2.13;;;;;;;;;;5039482;28;20033;-80
2023/07/10 11:40:23;;;;;;;6.70;2.10;;;;;;;;;;5033771;28;20445;-80
2023/07/10 11:42:49;;;;;;;4.22;1.20;;;;;;;;;;5032749;28;20109;-80
2023/07/10 11:45:14;;;;;;;9.57;1.52;;;;;;;;;;5051555;28;20036;-79
2023/07/10 11:47:43;;;;;;;4.97;1.20;;;;;;;;;;5034633;28;20104;-79
2023/07/10 11:50:27;;;;;;;6.13;1.60;;;;;;;;;;5035832;28;20047;-80
2023/07/10 11:53:15;;;;;;;5.68;1.80;;;;;;;;;;5055957;28;20473;-80
2023/07/10 11:56:04;;;;;;;4.55;1.33;;;;;;;;;;5047578;28;20024;-80
2023/07/10 11:58:33;;;;;;;5.43;1.50;;;;;;;;;;5036533;28;20067;-80
2023/07/10 12:01:22;;;;;;;5.05;1.40;;;;;;;;;;5048293;28;20083;-80
2023/07/10 12:03:48;;;;;;;6.05;1.80;;;;;;;;;;5053104;28;20031;-80
2023/07/10 12:06:15;;;;;;;4.32;1.50;;;;;;;;;;5033914;28;20053;-80
2023/07/10 12:08:41;;;;;;;5.05;1.55;;;;;;;;;;5049137;28;20013;-80
2023/07/10 12:11:32;;;;;;;6.13;1.30;;;;;;;;;;5042142;28;20043;-80
2023/07/10 12:14:27;;;;;;;3.90;1.20;;;;;;;;;;5032826;28;20125;-81
2023/07/10 12:16:58;;;;;;;4.10;1.40;;;;;;;;;;5042977;28;20029;-80
2023/07/10 12:19:34;;;;;;;4.75;1.33;;;;;;;;;;5033275;28;20033;-80
2023/07/10 12:22:15;;;;;;;4.00;1.30;;;;;;;;;;5033993;28;20029;-80
2023/07/10 12:24:54;;;;;;;6.32;1.48;;;;;;;;;;5056817;28;20074;-80
2023/07/10 12:27:20;;;;;;;4.72;1.40;;;;;;;;;;5034766;28;20160;-80
2023/07/10 12:29:51;;;;;;;3.00;1.20;;;;;;;;;;5046618;28;20108;-80
2023/07/10 12:32:17;;;;;;;5.35;1.45;;;;;;;;;;5046961;28;20020;-80
2023/07/10 12:34:42;;;;;;;5.07;1.60;;;;;;;;;;5054051;28;20416;-80
2023/07/10 12:37:11;;;;;;;4.65;1.48;;;;;;;;;;5029756;28;20037;-80
2023/07/10 12:39:36;;;;;;;4.80;1.40;;;;;;;;;;5051745;28;20077;-80
2023/07/10 12:42:02;;;;;;;5.63;1.30;;;;;;;;;;5036970;28;20057;-80
2023/07/10 12:44:29;;;;;;;6.65;1.60;;;;;;;;;;5037694;28;20037;-80
2023/07/10 12:47:06;;;;;;;6.53;1.48;;;;;;;;;;5035827;28;20622;-80
2023/07/10 12:49:33;;;;;;;5.28;1.10;;;;;;;;;;5033106;28;20393;-80
2023/07/10 12:52:03;;;;;;;5.43;1.35;;;;;;;;;;5057884;28;20029;-80
2023/07/10 12:54:38;;;;;;;3.85;1.40;;;;;;;;;;5035930;28;20021;-80
2023/07/10 12:57:14;;;;;;;5.78;1.30;;;;;;;;;;5052541;28;20035;-80
2023/07/10 12:59:39;;;;;;;5.15;1.45;;;;;;;;;;5030548;28;20025;-80
2023/07/10 13:02:15;;;;;;;4.70;1.65;;;;;;;;;;5050965;28;20034;-80
2023/07/10 13:04:46;;;;;;;4.30;1.10;;;;;;;;;;5033506;28;20155;-79
2023/07/10 13:07:18;;;;;;;4.03;1.23;;;;;;;;;;5037078;28;20500;-80
2023/07/10 13:09:55;;;;;;;5.82;1.67;;;;;;;;;;5065373;28;20105;-80
2023/07/10 13:12:26;;;;;;;4.82;1.45;;;;;;;;;;5055130;28;20066;-80
2023/07/10 13:14:52;;;;;;;6.57;2.22;;;;;;;;;;5036230;28;20032;-80
2023/07/10 13:17:25;;;;;;;3.92;1.13;;;;;;;;;;5052410;28;20032;-80
2023/07/10 13:19:51;;;;;;;4.93;1.20;;;;;;;;;;5030065;28;20030;-80
2023/07/10 13:22:16;;;;;;;3.78;1.13;;;;;;;;;;5051391;28;20032;-80
2023/07/10 13:24:42;;;;;;;4.50;1.10;;;;;;;;;;5058938;28;20025;-80
2023/07/10 13:27:18;;;;;;;4.03;1.08;;;;;;;;;;5051049;28;20021;-80
2023/07/10 13:29:43;;;;;;;3.45;1.02;;;;;;;;;;5038669;28;20107;-80
2023/07/10 13:32:13;;;;;;;2.78;0.82;;;;;;;;;;5038523;28;20542;-80
2023/07/10 13:34:39;;;;;;;3.88;1.20;;;;;;;;;;5035645;28;20040;-80
2023/07/10 13:37:18;;;;;;;5.00;1.10;;;;;;;;;;5052003;28;20370;-80
2023/07/10 13:39:44;;;;;;;3.88;1.17;;;;;;;;;;5036845;28;20021;-79
2023/07/10 13:42:12;;;;;;;3.50;1.02;;;;;;;;;;5037484;28;20461;-80
2023/07/10 13:44:45;;;;;;;5.55;1.30;;;;;;;;;;5037638;28;20470;-80
2023/07/10 13:47:15;;;;;;;4.40;1.15;;;;;;;;;;5033447;28;20428;-80
2023/07/10 13:49:41;;;;;;;8.15;1.52;;;;;;;;;;5033620;28;20021;-80
2023/07/10 13:52:24;;;;;;;4.90;1.25;;;;;;;;;;5051658;28;20083;-80
2023/07/10 13:54:50;;;;;;;4.93;1.25;;;;;;;;;;5054715;28;20111;-80
2023/07/10 13:57:19;;;;;;;3.25;1.20;;;;;;;;;;5036702;28;20068;-80
2023/07/10 13:59:44;;;;;;;4.65;1.23;;;;;;;;;;5034519;28;20288;-80
2023/07/10 14:02:34;;;;;;;3.53;1.30;;;;;;;;;;5034012;28;20029;-80
2023/07/10 14:05:01;;;;;;;4.53;1.35;;;;;;;;;;5034581;28;20378;-80
2023/07/10 14:07:28;;;;;;;3.15;1.30;;;;;;;;;;5052060;28;20079;-80
2023/07/10 14:09:54;;;;;;;4.32;1.45;;;;;;;;;;5048368;28;20029;-80
2023/07/10 14:12:21;;;;;;;4.25;1.08;;;;;;;;;;5049130;28;20037;-80
2023/07/10 14:14:47;;;;;;;4.07;1.20;;;;;;;;;;5040318;28;20481;-80
2023/07/10 14:17:31;;;;;;;3.03;0.90;;;;;;;;;;5028906;28;20033;-80
2023/07/10 14:19:57;;;;;;;4.13;1.10;;;;;;;;;;5027294;28;20568;-79
2023/07/10 14:22:23;;;;;;;4.53;1.25;;;;;;;;;;5041871;28;20032;-80
2023/07/10 14:24:49;;;;;;;3.78;1.10;;;;;;;;;;5043727;28;20036;-79
2023/07/10 14:27:27;;;;;;;4.15;1.30;;;;;;;;;;5045251;28;20041;-80
2023/07/10 14:29:56;;;;;;;5.90;1.42;;;;;;;;;;5038099;28;20037;-80
2023/07/10 14:32:24;;;;;;;2.78;1.40;;;;;;;;;;5051679;28;20016;-79
2023/07/10 14:34:49;;;;;;;3.78;1.30;;;;;;;;;;5026870;28;20059;-80
2023/07/10 14:37:22;;;;;;;4.20;1.20;;;;;;;;;;5054007;28;20121;-80
2023/07/10 14:39:49;;;;;;;4.05;1.20;;;;;;;;;;5028370;28;20033;-80
2023/07/10 14:42:17;;;;;;;3.63;1.23;;;;;;;;;;5044020;28;20028;-80
2023/07/10 14:44:43;;;;;;;5.00;1.48;;;;;;;;;;5035616;28;20397;-79
2023/07/10 14:47:27;;;;;;;5.18;1.30;;;;;;;;;;5049904;28;20028;-79
2023/07/10 14:49:52;;;;;;;7.45;2.10;;;;;;;;;;5030456;28;20017;-80
2023/07/10 14:52:23;;;;;;;5.55;1.35;;;;;;;;;;5034014;28;20033;-80
2023/07/10 14:54:50;;;;;;;4.35;1.30;;;;;;;;;;5052785;28;20040;-79
2023/07/10 14:57:27;;;;;;;4.80;1.45;;;;;;;;;;5051682;28;20509;-80
2023/07/10 14:59:53;;;;;;;5.43;1.40;;;;;;;;;;5026661;28;20488;-80